Time;durP1;ratioP1;P1;durP2;ratioP2;P2;SDS_P1;SDS_P2;PMS_P1;PMS_P2;Temp;Humidity;BMP_temperature;BMP_pressure;BME280_temperature;BME280_humidity;BME280_pressure;Samples;Min_cycle;Max_cycle;Signal;HPM_P1;HPM_P2
2023/12/21 00:01:21;;;;;;;11.10;10.60;;;;;;;;;;5069524;28;20124;-57
2023/12/21 00:03:46;;;;;;;11.25;10.75;;;;;;;;;;5070617;28;20483;-54
2023/12/21 00:06:12;;;;;;;11.68;11.07;;;;;;;;;;5069050;28;20024;-56
2023/12/21 00:08:37;;;;;;;11.20;10.70;;;;;;;;;;5067558;28;20111;-55
2023/12/21 00:11:02;;;;;;;10.90;10.40;;;;;;;;;;5070919;28;20071;-56
2023/12/21 00:13:28;;;;;;;10.73;10.23;;;;;;;;;;5072891;28;20020;-56
2023/12/21 00:15:53;;;;;;;10.82;10.32;;;;;;;;;;5069799;28;20052;-57
2023/12/21 00:18:19;;;;;;;11.20;10.70;;;;;;;;;;5074148;28;20048;-56
2023/12/21 00:20:44;;;;;;;11.05;10.55;;;;;;;;;;5073896;28;20101;-56
2023/12/21 00:23:09;;;;;;;11.02;10.52;;;;;;;;;;5070335;28;20043;-57
2023/12/21 00:25:35;;;;;;;10.95;10.45;;;;;;;;;;5069793;28;20116;-54
2023/12/21 00:28:00;;;;;;;11.35;10.80;;;;;;;;;;5073962;28;20114;-54
2023/12/21 00:30:25;;;;;;;10.85;10.35;;;;;;;;;;5072599;28;20029;-57
2023/12/21 00:32:52;;;;;;;10.82;10.32;;;;;;;;;;5074794;28;20032;-54
2023/12/21 00:35:18;;;;;;;11.10;10.60;;;;;;;;;;5075690;28;20058;-52
2023/12/21 00:37:43;;;;;;;11.00;10.50;;;;;;;;;;5069411;28;20048;-56
2023/12/21 00:40:09;;;;;;;10.73;10.23;;;;;;;;;;5070429;28;20017;-57
2023/12/21 00:42:36;;;;;;;10.55;10.05;;;;;;;;;;5075274;28;20483;-52
2023/12/21 00:45:02;;;;;;;10.77;10.27;;;;;;;;;;5074921;28;20032;-52
2023/12/21 00:47:27;;;;;;;11.18;10.68;;;;;;;;;;5078462;28;20024;-53
2023/12/21 00:49:53;;;;;;;10.77;10.27;;;;;;;;;;5073241;28;20048;-55
2023/12/21 00:52:18;;;;;;;11.27;10.77;;;;;;;;;;5075237;28;20115;-55
2023/12/21 00:54:44;;;;;;;11.25;10.75;;;;;;;;;;5073364;28;20527;-56
2023/12/21 00:57:09;;;;;;;11.02;10.52;;;;;;;;;;5073827;28;20020;-55
2023/12/21 00:59:34;;;;;;;11.07;10.57;;;;;;;;;;5073659;28;20097;-56
2023/12/21 01:02:01;;;;;;;11.00;10.50;;;;;;;;;;5069985;28;20029;-54
2023/12/21 01:04:27;;;;;;;11.70;11.10;;;;;;;;;;5072231;28;20434;-55
2023/12/21 01:06:52;;;;;;;11.30;10.80;;;;;;;;;;5068932;28;20029;-55
2023/12/21 01:09:17;;;;;;;11.00;10.50;;;;;;;;;;5071440;28;20400;-56
2023/12/21 01:11:43;;;;;;;10.63;10.13;;;;;;;;;;5073535;28;20024;-56
2023/12/21 01:14:08;;;;;;;11.07;10.57;;;;;;;;;;5075537;28;20462;-57
2023/12/21 01:16:33;;;;;;;10.95;10.45;;;;;;;;;;5076530;28;20047;-56
2023/12/21 01:18:59;;;;;;;10.80;10.30;;;;;;;;;;5067410;28;20021;-56
2023/12/21 01:21:24;;;;;;;11.65;11.05;;;;;;;;;;5070495;28;20028;-53
2023/12/21 01:23:50;;;;;;;11.80;11.20;;;;;;;;;;5070106;28;20475;-53
2023/12/21 01:26:15;;;;;;;11.27;10.77;;;;;;;;;;5072142;28;20522;-55
2023/12/21 01:28:40;;;;;;;11.00;10.50;;;;;;;;;;5073687;28;20064;-52
2023/12/21 01:31:06;;;;;;;11.30;10.80;;;;;;;;;;5072151;28;20384;-57
2023/12/21 01:33:32;;;;;;;11.20;10.70;;;;;;;;;;5072560;28;20036;-55
2023/12/21 01:35:57;;;;;;;11.20;10.70;;;;;;;;;;5076568;28;20025;-57
2023/12/21 01:38:22;;;;;;;11.70;11.10;;;;;;;;;;5070579;28;20051;-56
2023/12/21 01:40:48;;;;;;;11.00;10.50;;;;;;;;;;5072326;28;20025;-55
2023/12/21 01:43:13;;;;;;;10.98;10.48;;;;;;;;;;5074609;28;20454;-55
2023/12/21 01:45:38;;;;;;;11.43;10.88;;;;;;;;;;5074736;28;20476;-55
2023/12/21 01:48:04;;;;;;;10.80;10.30;;;;;;;;;;5069148;28;20545;-56
2023/12/21 01:50:29;;;;;;;11.25;10.75;;;;;;;;;;5072967;28;20024;-54
2023/12/21 01:52:56;;;;;;;12.13;11.52;;;;;;;;;;5069425;28;20145;-56
2023/12/21 01:55:21;;;;;;;11.05;10.55;;;;;;;;;;5071967;28;20809;-54
2023/12/21 01:57:48;;;;;;;11.07;10.57;;;;;;;;;;5072511;28;20021;-54
2023/12/21 02:00:13;;;;;;;10.70;10.20;;;;;;;;;;5073393;28;20013;-56
2023/12/21 02:02:39;;;;;;;10.73;10.23;;;;;;;;;;5071917;28;20031;-55
2023/12/21 02:05:04;;;;;;;10.70;10.20;;;;;;;;;;5072042;28;20039;-55
2023/12/21 02:07:30;;;;;;;11.23;10.73;;;;;;;;;;5071332;28;20016;-55
2023/12/21 02:09:55;;;;;;;11.73;11.13;;;;;;;;;;5068488;28;20024;-54
2023/12/21 02:12:20;;;;;;;10.60;10.10;;;;;;;;;;5071463;28;20039;-54
2023/12/21 02:14:46;;;;;;;10.93;10.43;;;;;;;;;;5072646;28;20031;-54
2023/12/21 02:17:15;;;;;;;11.20;10.70;;;;;;;;;;5071965;28;20048;-55
2023/12/21 02:19:41;;;;;;;10.90;10.40;;;;;;;;;;5067317;28;20028;-58
2023/12/21 02:22:07;;;;;;;11.68;11.07;;;;;;;;;;5062045;28;20047;-56
2023/12/21 02:24:33;;;;;;;11.05;10.55;;;;;;;;;;5071254;28;20082;-54
2023/12/21 02:26:59;;;;;;;11.50;10.95;;;;;;;;;;5070406;28;20063;-54
2023/12/21 02:29:24;;;;;;;11.45;10.93;;;;;;;;;;5072478;28;20031;-57
2023/12/21 02:31:50;;;;;;;10.75;10.25;;;;;;;;;;5068089;28;20430;-56
2023/12/21 02:34:16;;;;;;;11.70;11.10;;;;;;;;;;5067169;28;20025;-56
2023/12/21 02:36:41;;;;;;;10.98;10.48;;;;;;;;;;5071232;28;20096;-59
2023/12/21 02:39:06;;;;;;;10.70;10.20;;;;;;;;;;5069867;28;20052;-56
2023/12/21 02:41:32;;;;;;;10.63;10.13;;;;;;;;;;5070746;28;20017;-53
2023/12/21 02:43:57;;;;;;;11.52;10.93;;;;;;;;;;5065429;28;20412;-56
2023/12/21 02:46:26;;;;;;;10.82;10.32;;;;;;;;;;5071459;28;20024;-54
2023/12/21 02:48:52;;;;;;;11.40;10.80;;;;;;;;;;5072087;28;20104;-53
2023/12/21 02:51:17;;;;;;;11.23;10.70;;;;;;;;;;5072926;28;20112;-55
2023/12/21 02:53:42;;;;;;;11.85;11.25;;;;;;;;;;5071671;28;20579;-55
2023/12/21 02:56:08;;;;;;;10.95;10.45;;;;;;;;;;5071051;28;20466;-54
2023/12/21 02:58:34;;;;;;;10.90;10.40;;;;;;;;;;5071107;28;20020;-55
2023/12/21 03:01:03;;;;;;;10.55;10.05;;;;;;;;;;5065654;28;20063;-52
2023/12/21 03:03:28;;;;;;;10.75;10.25;;;;;;;;;;5070861;28;20048;-53
2023/12/21 03:05:53;;;;;;;11.15;10.65;;;;;;;;;;5071626;28;20063;-54
2023/12/21 03:08:19;;;;;;;10.60;10.10;;;;;;;;;;5074015;28;20059;-55
2023/12/21 03:10:45;;;;;;;10.88;10.38;;;;;;;;;;5070762;28;20082;-56
2023/12/21 03:13:10;;;;;;;10.88;10.38;;;;;;;;;;5071067;28;20025;-58
2023/12/21 03:15:37;;;;;;;11.68;11.07;;;;;;;;;;5069393;28;20056;-56
2023/12/21 03:18:03;;;;;;;11.02;10.52;;;;;;;;;;5070742;28;20074;-56
2023/12/21 03:20:28;;;;;;;11.85;11.25;;;;;;;;;;5080165;28;20024;-56
2023/12/21 03:22:53;;;;;;;10.90;10.40;;;;;;;;;;5074192;28;20031;-53
2023/12/21 03:25:19;;;;;;;11.70;11.10;;;;;;;;;;5070775;28;20024;-55
2023/12/21 03:27:44;;;;;;;11.10;10.60;;;;;;;;;;5070617;28;20016;-54
2023/12/21 03:30:10;;;;;;;11.23;10.73;;;;;;;;;;5070798;28;20020;-56
2023/12/21 03:32:36;;;;;;;10.60;10.10;;;;;;;;;;5069193;28;20044;-56
2023/12/21 03:35:03;;;;;;;10.70;10.20;;;;;;;;;;5070806;28;20024;-57
2023/12/21 03:37:29;;;;;;;11.90;11.30;;;;;;;;;;5070329;28;20077;-56
2023/12/21 03:39:55;;;;;;;10.90;10.40;;;;;;;;;;5070731;28;20028;-56
2023/12/21 03:42:21;;;;;;;11.57;10.98;;;;;;;;;;5072967;28;20024;-55
2023/12/21 03:44:46;;;;;;;10.90;10.40;;;;;;;;;;5071031;28;20031;-56
2023/12/21 03:47:12;;;;;;;11.00;10.50;;;;;;;;;;5069841;28;20028;-56
2023/12/21 03:49:37;;;;;;;11.40;10.80;;;;;;;;;;5067394;28;20106;-56
2023/12/21 03:52:02;;;;;;;11.68;11.07;;;;;;;;;;5070959;28;20027;-55
2023/12/21 03:54:28;;;;;;;11.23;10.73;;;;;;;;;;5074093;28;20013;-53
2023/12/21 03:56:53;;;;;;;11.23;10.70;;;;;;;;;;5069136;28;20106;-54
2023/12/21 03:59:18;;;;;;;11.60;11.00;;;;;;;;;;5072450;28;20016;-54
2023/12/21 04:01:43;;;;;;;10.80;10.30;;;;;;;;;;5068145;28;20029;-57
2023/12/21 04:04:09;;;;;;;11.30;10.80;;;;;;;;;;5074539;28;20438;-55
2023/12/21 04:06:34;;;;;;;12.05;11.45;;;;;;;;;;5067834;28;20475;-53
2023/12/21 04:09:00;;;;;;;11.55;10.95;;;;;;;;;;5072620;28;20068;-55
2023/12/21 04:11:25;;;;;;;11.98;11.38;;;;;;;;;;5070613;28;20387;-55
2023/12/21 04:13:50;;;;;;;11.20;10.70;;;;;;;;;;5074486;28;20016;-52
2023/12/21 04:16:16;;;;;;;11.18;10.68;;;;;;;;;;5077435;28;20144;-56
2023/12/21 04:18:41;;;;;;;11.10;10.60;;;;;;;;;;5064277;28;20063;-54
2023/12/21 04:21:07;;;;;;;11.23;10.73;;;;;;;;;;5076719;28;20039;-56
2023/12/21 04:23:32;;;;;;;11.57;10.98;;;;;;;;;;5073547;28;20028;-57
2023/12/21 04:25:58;;;;;;;11.07;10.57;;;;;;;;;;5073910;28;20165;-56
2023/12/21 04:28:23;;;;;;;11.52;10.93;;;;;;;;;;5073116;28;20107;-55
2023/12/21 04:30:48;;;;;;;11.45;10.85;;;;;;;;;;5067386;28;20404;-53
2023/12/21 04:33:14;;;;;;;11.70;11.10;;;;;;;;;;5075218;28;20025;-57
2023/12/21 04:35:39;;;;;;;11.45;10.85;;;;;;;;;;5070226;28;20056;-55
2023/12/21 04:38:05;;;;;;;11.90;11.30;;;;;;;;;;5078776;28;20487;-55
2023/12/21 04:40:30;;;;;;;11.80;11.20;;;;;;;;;;5071949;28;20025;-54
2023/12/21 04:42:55;;;;;;;11.93;11.32;;;;;;;;;;5073057;28;20021;-52
2023/12/21 04:45:23;;;;;;;11.30;10.80;;;;;;;;;;5065750;28;20040;-57
2023/12/21 04:47:49;;;;;;;11.50;10.90;;;;;;;;;;5072816;28;20139;-57
2023/12/21 04:50:14;;;;;;;11.80;11.20;;;;;;;;;;5071766;28;20103;-55
2023/12/21 04:52:40;;;;;;;11.20;10.65;;;;;;;;;;5072429;28;20036;-55
2023/12/21 04:55:05;;;;;;;11.15;10.65;;;;;;;;;;5072432;28;20031;-54
2023/12/21 04:57:31;;;;;;;11.18;10.68;;;;;;;;;;5073372;28;20028;-52
2023/12/21 04:59:56;;;;;;;10.80;10.30;;;;;;;;;;5071034;28;20051;-51
2023/12/21 05:02:22;;;;;;;11.23;10.73;;;;;;;;;;5070823;28;20032;-56
2023/12/21 05:04:47;;;;;;;11.20;10.65;;;;;;;;;;5072855;28;20020;-56
2023/12/21 05:07:12;;;;;;;12.35;11.68;;;;;;;;;;5071481;28;20060;-55
2023/12/21 05:09:38;;;;;;;11.25;10.75;;;;;;;;;;5075715;28;20017;-55
2023/12/21 05:12:03;;;;;;;11.80;11.20;;;;;;;;;;5074725;28;20028;-55
2023/12/21 05:14:29;;;;;;;11.30;10.70;;;;;;;;;;5066654;28;20078;-56
2023/12/21 05:16:54;;;;;;;11.50;10.90;;;;;;;;;;5072853;28;20041;-56
2023/12/21 05:19:19;;;;;;;11.73;11.13;;;;;;;;;;5073344;28;20020;-57
2023/12/21 05:21:45;;;;;;;10.88;10.38;;;;;;;;;;5072632;28;20020;-57
2023/12/21 05:24:10;;;;;;;11.68;11.07;;;;;;;;;;5070373;28;20052;-56
2023/12/21 05:26:35;;;;;;;11.18;10.68;;;;;;;;;;5071800;28;20028;-52
2023/12/21 05:29:02;;;;;;;11.68;11.07;;;;;;;;;;5072379;28;20028;-57
2023/12/21 05:31:27;;;;;;;12.15;11.55;;;;;;;;;;5072816;28;20025;-56
2023/12/21 05:33:53;;;;;;;11.85;11.25;;;;;;;;;;5071608;28;20159;-54
2023/12/21 05:36:21;;;;;;;11.93;11.32;;;;;;;;;;5072037;28;20025;-54
2023/12/21 05:38:47;;;;;;;11.93;11.32;;;;;;;;;;5067940;28;20046;-56
2023/12/21 05:41:12;;;;;;;11.27;10.70;;;;;;;;;;5071939;28;20028;-56
2023/12/21 05:43:38;;;;;;;12.30;11.60;;;;;;;;;;5072215;28;20016;-54
2023/12/21 05:46:04;;;;;;;11.32;10.75;;;;;;;;;;5073131;28;20033;-54
2023/12/21 05:48:29;;;;;;;11.48;10.88;;;;;;;;;;5071689;28;20471;-53
2023/12/21 05:50:55;;;;;;;11.40;10.80;;;;;;;;;;5072334;28;20056;-53
2023/12/21 05:53:20;;;;;;;12.55;11.85;;;;;;;;;;5069518;28;20447;-54
2023/12/21 05:55:45;;;;;;;12.88;12.18;;;;;;;;;;5071329;28;20016;-54
2023/12/21 05:58:11;;;;;;;11.00;10.50;;;;;;;;;;5064670;28;20024;-56
2023/12/21 06:00:37;;;;;;;12.27;11.65;;;;;;;;;;5071629;28;20024;-54
2023/12/21 06:03:03;;;;;;;11.55;10.95;;;;;;;;;;5073673;28;20032;-55
2023/12/21 06:05:28;;;;;;;12.05;11.43;;;;;;;;;;5068689;28;20016;-58
2023/12/21 06:07:53;;;;;;;12.20;11.60;;;;;;;;;;5073640;28;20159;-57
2023/12/21 06:10:19;;;;;;;12.07;11.48;;;;;;;;;;5073968;28;20104;-55
2023/12/21 06:12:44;;;;;;;11.60;11.00;;;;;;;;;;5066826;28;20053;-56
2023/12/21 06:15:09;;;;;;;11.60;11.00;;;;;;;;;;5068598;28;20134;-56
2023/12/21 06:17:35;;;;;;;11.52;10.93;;;;;;;;;;5070454;28;20020;-57
2023/12/21 06:20:00;;;;;;;11.30;10.80;;;;;;;;;;5068598;28;20025;-56
2023/12/21 06:22:25;;;;;;;12.13;11.52;;;;;;;;;;5068113;28;20613;-56
2023/12/21 06:24:51;;;;;;;11.30;10.75;;;;;;;;;;5060842;28;20479;-57
2023/12/21 06:27:16;;;;;;;11.73;11.13;;;;;;;;;;5067219;28;20058;-58
2023/12/21 06:29:42;;;;;;;11.57;10.98;;;;;;;;;;5065570;28;20099;-58
2023/12/21 06:32:08;;;;;;;12.13;11.52;;;;;;;;;;5065234;28;20032;-58
2023/12/21 06:34:33;;;;;;;12.73;12.02;;;;;;;;;;5069452;28;20012;-54
2023/12/21 06:36:59;;;;;;;11.68;11.07;;;;;;;;;;5065935;28;20027;-55
2023/12/21 06:39:24;;;;;;;11.70;11.10;;;;;;;;;;5063918;28;20510;-56
2023/12/21 06:41:50;;;;;;;11.57;10.98;;;;;;;;;;5070196;28;20087;-55
2023/12/21 06:44:16;;;;;;;10.73;10.23;;;;;;;;;;5069741;28;20024;-54
2023/12/21 06:46:42;;;;;;;11.65;11.05;;;;;;;;;;5064223;28;20021;-56
2023/12/21 06:49:13;;;;;;;10.90;10.40;;;;;;;;;;5072585;28;20066;-56
2023/12/21 06:51:39;;;;;;;11.85;11.25;;;;;;;;;;5066003;28;20031;-56
2023/12/21 06:54:06;;;;;;;11.73;11.13;;;;;;;;;;5066288;28;20111;-56
2023/12/21 06:56:31;;;;;;;11.25;10.73;;;;;;;;;;5068713;28;20028;-56
2023/12/21 06:58:56;;;;;;;12.05;11.45;;;;;;;;;;5073540;28;20024;-56
2023/12/21 07:01:31;;;;;;;11.55;10.95;;;;;;;;;;5065813;28;20421;-55
2023/12/21 07:03:56;;;;;;;11.45;10.90;;;;;;;;;;5068362;28;20097;-55
2023/12/21 07:06:22;;;;;;;11.55;10.98;;;;;;;;;;5067079;28;20024;-57
2023/12/21 07:08:47;;;;;;;12.27;11.68;;;;;;;;;;5066535;28;20028;-57
2023/12/21 07:11:14;;;;;;;12.20;11.60;;;;;;;;;;5065138;28;20399;-55
2023/12/21 07:13:39;;;;;;;12.73;12.02;;;;;;;;;;5068347;28;20021;-54
2023/12/21 07:16:05;;;;;;;12.30;11.70;;;;;;;;;;5068610;28;20044;-58
2023/12/21 07:18:30;;;;;;;11.80;11.20;;;;;;;;;;5070668;28;20025;-54
2023/12/21 07:20:56;;;;;;;11.20;10.70;;;;;;;;;;5069564;28;20108;-57
2023/12/21 07:23:21;;;;;;;12.95;12.25;;;;;;;;;;5070889;28;20078;-58
2023/12/21 07:25:47;;;;;;;12.23;11.63;;;;;;;;;;5069071;28;20480;-56
2023/12/21 07:28:15;;;;;;;12.73;12.02;;;;;;;;;;5070417;28;20024;-56
2023/12/21 07:30:40;;;;;;;11.98;11.38;;;;;;;;;;5069970;28;20035;-58
2023/12/21 07:33:06;;;;;;;12.25;11.65;;;;;;;;;;5073831;28;20016;-61
2023/12/21 07:35:31;;;;;;;13.18;12.48;;;;;;;;;;5066349;28;20021;-63
2023/12/21 07:37:56;;;;;;;12.60;11.93;;;;;;;;;;5065210;28;20020;-61
2023/12/21 07:40:22;;;;;;;12.80;12.10;;;;;;;;;;5070002;28;20025;-63
2023/12/21 07:42:47;;;;;;;12.73;12.02;;;;;;;;;;5070263;28;20035;-61
2023/12/21 07:45:12;;;;;;;13.18;12.48;;;;;;;;;;5066855;28;20424;-63
2023/12/21 07:47:38;;;;;;;15.45;14.55;;;;;;;;;;5064731;28;20405;-62
2023/12/21 07:50:04;;;;;;;12.13;11.52;;;;;;;;;;5065217;28;20024;-63
2023/12/21 07:52:29;;;;;;;13.38;12.65;;;;;;;;;;5058883;28;20031;-62
2023/12/21 07:54:54;;;;;;;12.02;11.43;;;;;;;;;;5058560;28;20032;-62
2023/12/21 07:57:20;;;;;;;12.95;12.25;;;;;;;;;;5066833;28;20327;-62
2023/12/21 07:59:45;;;;;;;12.57;11.93;;;;;;;;;;5065605;28;20025;-63
2023/12/21 08:02:10;;;;;;;13.65;12.90;;;;;;;;;;5065888;28;20024;-62
2023/12/21 08:04:36;;;;;;;12.90;12.20;;;;;;;;;;5068457;28;20160;-63
2023/12/21 08:07:01;;;;;;;14.45;13.65;;;;;;;;;;5065915;28;20024;-63
2023/12/21 08:09:27;;;;;;;13.88;13.07;;;;;;;;;;5065088;28;20028;-63
2023/12/21 08:11:53;;;;;;;12.13;11.52;;;;;;;;;;5066909;28;20252;-63
2023/12/21 08:14:19;;;;;;;11.90;11.30;;;;;;;;;;5065898;28;20033;-63
2023/12/21 08:16:45;;;;;;;12.02;11.43;;;;;;;;;;5060925;28;20059;-62
2023/12/21 08:19:10;;;;;;;12.95;12.25;;;;;;;;;;5066629;28;20396;-63
2023/12/21 08:21:35;;;;;;;13.43;12.73;;;;;;;;;;5062898;28;20388;-62
2023/12/21 08:24:01;;;;;;;12.95;12.25;;;;;;;;;;5057686;28;20389;-62
2023/12/21 08:26:27;;;;;;;14.02;13.23;;;;;;;;;;5061530;28;20515;-64
2023/12/21 08:28:52;;;;;;;12.75;12.05;;;;;;;;;;5055652;28;20025;-62
2023/12/21 08:31:24;;;;;;;12.32;11.73;;;;;;;;;;5061311;28;20033;-62
2023/12/21 08:33:50;;;;;;;13.25;12.55;;;;;;;;;;5061915;28;20108;-63
2023/12/21 08:36:15;;;;;;;13.10;12.40;;;;;;;;;;5063237;28;20115;-63
2023/12/21 08:38:41;;;;;;;13.45;12.75;;;;;;;;;;5061001;28;20012;-62
2023/12/21 08:41:07;;;;;;;13.80;13.05;;;;;;;;;;5059609;28;20032;-62
2023/12/21 08:43:32;;;;;;;13.05;12.35;;;;;;;;;;5059172;28;20081;-63
2023/12/21 08:45:57;;;;;;;13.65;12.93;;;;;;;;;;5061290;28;20056;-64
2023/12/21 08:48:23;;;;;;;11.90;11.30;;;;;;;;;;5058641;28;20024;-63
2023/12/21 08:50:48;;;;;;;12.77;12.10;;;;;;;;;;5061556;28;20057;-63
2023/12/21 08:53:13;;;;;;;12.95;12.25;;;;;;;;;;5065372;28;20028;-64
2023/12/21 08:55:39;;;;;;;13.63;12.90;;;;;;;;;;5065541;28;20024;-61
2023/12/21 08:58:04;;;;;;;13.07;12.38;;;;;;;;;;5062398;28;20032;-64
2023/12/21 09:00:29;;;;;;;13.93;13.20;;;;;;;;;;5062661;28;20032;-61
2023/12/21 09:02:55;;;;;;;13.07;12.38;;;;;;;;;;5063438;28;20447;-62
2023/12/21 09:05:20;;;;;;;13.93;13.15;;;;;;;;;;5063634;28;20033;-63
2023/12/21 09:07:45;;;;;;;13.10;12.40;;;;;;;;;;5060740;28;20036;-63
2023/12/21 09:10:11;;;;;;;12.45;11.85;;;;;;;;;;5063919;28;20515;-62
2023/12/21 09:12:36;;;;;;;12.52;11.93;;;;;;;;;;5064841;28;20119;-62
2023/12/21 09:15:03;;;;;;;12.77;12.18;;;;;;;;;;5062410;28;20114;-62
2023/12/21 09:17:29;;;;;;;13.52;12.82;;;;;;;;;;5058435;28;20056;-61
2023/12/21 09:19:54;;;;;;;12.80;12.18;;;;;;;;;;5058456;28;20033;-63
2023/12/21 09:22:21;;;;;;;12.13;11.52;;;;;;;;;;5067943;28;20383;-63
2023/12/21 09:24:47;;;;;;;12.43;11.82;;;;;;;;;;5066934;28;20090;-62
2023/12/21 09:27:14;;;;;;;12.73;12.13;;;;;;;;;;5062021;28;20028;-63
2023/12/21 09:29:39;;;;;;;13.32;12.65;;;;;;;;;;5061680;28;20095;-64
2023/12/21 09:32:05;;;;;;;13.63;12.93;;;;;;;;;;5060491;28;20032;-63
2023/12/21 09:34:31;;;;;;;14.70;13.90;;;;;;;;;;5062678;28;20522;-64
2023/12/21 09:36:56;;;;;;;13.75;13.05;;;;;;;;;;5053801;28;20040;-62
2023/12/21 09:39:22;;;;;;;15.07;14.27;;;;;;;;;;5063480;28;20016;-64
2023/12/21 09:41:47;;;;;;;13.65;12.95;;;;;;;;;;5058696;28;20033;-63
2023/12/21 09:44:17;;;;;;;13.18;12.55;;;;;;;;;;5062251;28;20030;-63
2023/12/21 09:46:45;;;;;;;13.60;12.90;;;;;;;;;;5063522;28;20500;-63
2023/12/21 09:49:13;;;;;;;12.90;12.30;;;;;;;;;;5055765;28;20037;-63
2023/12/21 09:51:39;;;;;;;13.20;12.60;;;;;;;;;;5065105;28;20077;-63
2023/12/21 09:54:05;;;;;;;13.65;12.95;;;;;;;;;;5062044;28;20025;-63
2023/12/21 09:56:31;;;;;;;14.05;13.35;;;;;;;;;;5062173;28;20028;-64
2023/12/21 09:58:58;;;;;;;14.25;13.55;;;;;;;;;;5066613;28;20077;-62
2023/12/21 10:01:23;;;;;;;12.82;12.23;;;;;;;;;;5064779;28;20782;-64
2023/12/21 10:03:48;;;;;;;13.50;12.80;;;;;;;;;;5065000;28;20029;-64
2023/12/21 10:06:16;;;;;;;14.25;13.55;;;;;;;;;;5060404;28;20552;-63
2023/12/21 10:08:41;;;;;;;14.32;13.63;;;;;;;;;;5064408;28;20038;-62
2023/12/21 10:11:07;;;;;;;12.60;12.00;;;;;;;;;;5062786;28;20107;-61
2023/12/21 10:13:33;;;;;;;13.80;13.10;;;;;;;;;;5065314;28;20422;-62
2023/12/21 10:15:59;;;;;;;14.00;13.30;;;;;;;;;;5064363;28;20036;-65
2023/12/21 10:18:26;;;;;;;14.27;13.57;;;;;;;;;;5061617;28;20575;-64
2023/12/21 10:20:51;;;;;;;14.10;13.40;;;;;;;;;;5066198;28;20036;-61
2023/12/21 10:23:18;;;;;;;13.10;12.48;;;;;;;;;;5058344;28;20047;-64
2023/12/21 10:25:46;;;;;;;15.02;14.23;;;;;;;;;;5051008;28;20107;-62
2023/12/21 10:28:12;;;;;;;14.40;13.68;;;;;;;;;;5047745;28;20021;-64
2023/12/21 10:30:38;;;;;;;14.20;13.50;;;;;;;;;;5053849;28;20036;-63
2023/12/21 10:33:03;;;;;;;14.95;14.15;;;;;;;;;;5054905;28;20036;-62
2023/12/21 10:35:28;;;;;;;14.50;13.75;;;;;;;;;;5049622;28;20103;-64
2023/12/21 10:37:54;;;;;;;15.70;14.80;;;;;;;;;;5049819;28;20029;-64
2023/12/21 10:40:21;;;;;;;14.30;13.57;;;;;;;;;;5049786;28;20035;-62
2023/12/21 10:42:47;;;;;;;14.23;13.50;;;;;;;;;;5049693;28;20057;-62
2023/12/21 10:45:16;;;;;;;13.85;13.15;;;;;;;;;;5048677;28;20111;-63
2023/12/21 10:47:52;;;;;;;13.88;13.18;;;;;;;;;;5051049;28;20414;-62
2023/12/21 10:50:19;;;;;;;13.07;12.48;;;;;;;;;;5053099;28;20086;-62
2023/12/21 10:52:46;;;;;;;14.07;13.38;;;;;;;;;;5051214;28;20040;-62
2023/12/21 10:55:14;;;;;;;14.00;13.30;;;;;;;;;;5051987;28;20033;-62
2023/12/21 10:57:40;;;;;;;15.30;14.50;;;;;;;;;;5047039;28;21429;-63
2023/12/21 11:00:12;;;;;;;14.50;13.70;;;;;;;;;;5048356;28;20025;-61
2023/12/21 11:02:38;;;;;;;13.65;12.95;;;;;;;;;;5052236;28;20024;-63
2023/12/21 11:05:04;;;;;;;13.23;12.52;;;;;;;;;;5051613;28;20040;-61
2023/12/21 11:07:30;;;;;;;15.65;14.77;;;;;;;;;;5047928;28;20037;-62
2023/12/21 11:09:55;;;;;;;13.25;12.55;;;;;;;;;;5051650;28;20240;-62
2023/12/21 11:12:22;;;;;;;14.63;13.82;;;;;;;;;;5048054;28;20359;-62
2023/12/21 11:14:48;;;;;;;12.98;12.38;;;;;;;;;;5049962;28;20544;-63
2023/12/21 11:17:14;;;;;;;14.10;13.40;;;;;;;;;;5056222;28;20047;-62
2023/12/21 11:19:40;;;;;;;14.50;13.73;;;;;;;;;;5058710;28;20028;-65
2023/12/21 11:22:06;;;;;;;13.77;13.07;;;;;;;;;;5061066;28;20029;-61
2023/12/21 11:24:31;;;;;;;13.80;13.10;;;;;;;;;;5058008;28;20036;-63
2023/12/21 11:26:59;;;;;;;13.82;13.13;;;;;;;;;;5062036;28;20047;-63
2023/12/21 11:29:27;;;;;;;13.35;12.65;;;;;;;;;;5058652;28;20116;-63
2023/12/21 11:31:52;;;;;;;13.30;12.60;;;;;;;;;;5060278;28;20035;-62
2023/12/21 11:34:19;;;;;;;13.15;12.48;;;;;;;;;;5062446;28;20017;-63
2023/12/21 11:36:46;;;;;;;13.77;13.07;;;;;;;;;;5060296;28;20017;-62
2023/12/21 11:39:15;;;;;;;13.75;13.05;;;;;;;;;;5058347;28;20049;-63
2023/12/21 11:42:00;;;;;;;12.77;12.18;;;;;;;;;;5055948;28;20040;-62
2023/12/21 11:44:37;;;;;;;12.93;12.32;;;;;;;;;;5063193;28;20391;-62
2023/12/21 11:47:07;;;;;;;13.70;13.00;;;;;;;;;;5063275;28;20496;-62
2023/12/21 11:49:32;;;;;;;13.48;12.77;;;;;;;;;;5059045;28;20487;-61
2023/12/21 11:51:59;;;;;;;13.95;13.25;;;;;;;;;;5055582;28;20039;-62
2023/12/21 11:54:25;;;;;;;12.80;12.20;;;;;;;;;;5060081;28;20095;-63
2023/12/21 11:56:52;;;;;;;12.85;12.25;;;;;;;;;;5059235;28;20298;-64
2023/12/21 11:59:18;;;;;;;14.00;13.30;;;;;;;;;;5060384;28;20032;-64
2023/12/21 12:01:44;;;;;;;13.27;12.57;;;;;;;;;;5061782;28;20032;-62
2023/12/21 12:04:16;;;;;;;14.13;13.43;;;;;;;;;;5054562;28;20392;-64
2023/12/21 12:06:42;;;;;;;13.23;12.52;;;;;;;;;;5061346;28;20387;-62
2023/12/21 12:09:08;;;;;;;13.48;12.77;;;;;;;;;;5057468;28;20032;-64
2023/12/21 12:11:34;;;;;;;13.43;12.73;;;;;;;;;;5057253;28;20041;-63
2023/12/21 12:13:59;;;;;;;13.63;12.93;;;;;;;;;;5065489;28;20020;-61
2023/12/21 12:16:24;;;;;;;14.45;13.65;;;;;;;;;;5063773;28;20191;-64
2023/12/21 12:18:50;;;;;;;13.45;12.75;;;;;;;;;;5060155;28;20022;-62
2023/12/21 12:21:16;;;;;;;13.65;12.95;;;;;;;;;;5061781;28;20035;-61
2023/12/21 12:23:45;;;;;;;14.43;13.65;;;;;;;;;;5059853;28;20036;-62
2023/12/21 12:26:10;;;;;;;13.93;13.23;;;;;;;;;;5060637;28;20025;-62
2023/12/21 12:28:36;;;;;;;13.88;13.18;;;;;;;;;;5063854;28;20033;-63
2023/12/21 12:31:01;;;;;;;13.50;12.80;;;;;;;;;;5059061;28;20034;-62
2023/12/21 12:33:27;;;;;;;13.60;12.90;;;;;;;;;;5062364;28;20115;-62
2023/12/21 12:35:52;;;;;;;13.35;12.65;;;;;;;;;;5065984;28;20029;-62
2023/12/21 12:38:18;;;;;;;13.98;13.27;;;;;;;;;;5062274;28;20012;-61
2023/12/21 12:40:46;;;;;;;13.23;12.52;;;;;;;;;;5055446;28;20503;-63
2023/12/21 12:43:11;;;;;;;13.85;13.15;;;;;;;;;;5060646;28;20120;-63
2023/12/21 12:45:36;;;;;;;13.85;13.15;;;;;;;;;;5061689;28;20123;-61
2023/12/21 12:48:02;;;;;;;12.88;12.27;;;;;;;;;;5069919;28;20025;-62
2023/12/21 12:50:29;;;;;;;13.63;12.93;;;;;;;;;;5067465;28;20028;-62
2023/12/21 12:52:55;;;;;;;13.30;12.60;;;;;;;;;;5057975;28;20037;-63
2023/12/21 12:55:23;;;;;;;13.60;12.90;;;;;;;;;;5063110;28;20039;-61
2023/12/21 12:57:50;;;;;;;13.57;12.88;;;;;;;;;;5064086;28;20029;-63
2023/12/21 13:00:16;;;;;;;14.70;13.90;;;;;;;;;;5059367;28;20020;-62
2023/12/21 13:02:42;;;;;;;12.50;11.90;;;;;;;;;;5064147;28;20040;-62
2023/12/21 13:05:07;;;;;;;12.10;11.50;;;;;;;;;;5072407;28;20021;-61
2023/12/21 13:07:32;;;;;;;12.95;12.32;;;;;;;;;;5072167;28;20476;-62
2023/12/21 13:09:58;;;;;;;12.43;11.82;;;;;;;;;;5070436;28;20396;-63
2023/12/21 13:12:23;;;;;;;13.55;12.85;;;;;;;;;;5058179;28;20016;-62
2023/12/21 13:14:49;;;;;;;14.05;13.35;;;;;;;;;;5062423;28;20622;-62
2023/12/21 13:17:16;;;;;;;13.45;12.75;;;;;;;;;;5059450;28;20083;-63
2023/12/21 13:19:42;;;;;;;13.23;12.52;;;;;;;;;;5056276;28;20021;-64
2023/12/21 13:22:09;;;;;;;12.88;12.27;;;;;;;;;;5060191;28;20063;-63
2023/12/21 13:24:35;;;;;;;13.65;12.95;;;;;;;;;;5059330;28;20028;-62
2023/12/21 13:27:01;;;;;;;14.10;13.40;;;;;;;;;;5062861;28;20033;-63
2023/12/21 13:29:27;;;;;;;12.48;11.88;;;;;;;;;;5067352;28;20032;-62
2023/12/21 13:31:52;;;;;;;13.00;12.35;;;;;;;;;;5064546;28;20024;-63
2023/12/21 13:34:18;;;;;;;12.77;12.18;;;;;;;;;;5064446;28;20077;-62
2023/12/21 13:36:43;;;;;;;12.80;12.20;;;;;;;;;;5057945;28;20028;-63
2023/12/21 13:39:08;;;;;;;13.57;12.88;;;;;;;;;;5062808;28;20013;-62
2023/12/21 13:41:34;;;;;;;13.25;12.55;;;;;;;;;;5064647;28;20630;-62
2023/12/21 13:43:59;;;;;;;13.30;12.60;;;;;;;;;;5065523;28;20399;-62
2023/12/21 13:46:26;;;;;;;13.70;13.00;;;;;;;;;;5059774;28;20044;-62
2023/12/21 13:48:51;;;;;;;13.80;13.10;;;;;;;;;;5060697;28;20024;-62
2023/12/21 13:51:17;;;;;;;13.45;12.75;;;;;;;;;;5064068;28;20029;-62
2023/12/21 13:53:42;;;;;;;13.60;12.90;;;;;;;;;;5062063;28;20025;-62
2023/12/21 13:56:09;;;;;;;13.27;12.57;;;;;;;;;;5059148;28;20028;-62
2023/12/21 13:58:34;;;;;;;12.88;12.27;;;;;;;;;;5064942;28;20104;-63
2023/12/21 14:00:59;;;;;;;13.95;13.25;;;;;;;;;;5055587;28;20120;-63
2023/12/21 14:03:25;;;;;;;13.73;13.02;;;;;;;;;;5059334;28;20479;-63
2023/12/21 14:05:50;;;;;;;13.25;12.55;;;;;;;;;;5063541;28;20132;-62
2023/12/21 14:08:16;;;;;;;13.95;13.25;;;;;;;;;;5065069;28;20046;-62